Time;durP1;ratioP1;P1;durP2;ratioP2;P2;SDS_P1;SDS_P2;PMS_P1;PMS_P2;Temp;Humidity;BMP_temperature;BMP_pressure;BME280_temperature;BME280_humidity;BME280_pressure;Samples;Min_cycle;Max_cycle;Signal;HPM_P1;HPM_P2
2021/12/28 00:01:24;;;;;;;36.97;20.38;;;3.30;99.90;;;;;;5052699;28;20041;-67
2021/12/28 00:03:51;;;;;;;35.60;20.55;;;3.30;99.90;;;;;;5052909;28;20083;-67
2021/12/28 00:06:17;;;;;;;37.90;19.50;;;3.40;99.90;;;;;;5053729;28;20037;-66
2021/12/28 00:08:44;;;;;;;38.45;20.70;;;3.40;99.90;;;;;;5054162;28;20456;-66
2021/12/28 00:11:10;;;;;;;34.88;20.33;;;3.40;99.90;;;;;;5054297;28;20174;-66
2021/12/28 00:13:38;;;;;;;39.67;23.27;;;3.40;99.90;;;;;;5053288;28;20094;-66
2021/12/28 00:18:31;;;;;;;36.75;22.30;;;3.50;99.90;;;;;;5053792;28;20060;-65
2021/12/28 00:20:59;;;;;;;39.65;22.55;;;3.50;99.90;;;;;;5054267;28;20053;-65
2021/12/28 00:23:38;;;;;;;36.30;22.35;;;3.50;99.90;;;;;;5053850;28;20044;-65
2021/12/28 00:26:06;;;;;;;40.03;22.25;;;3.50;99.90;;;;;;5054240;28;20049;-66
2021/12/28 00:28:32;;;;;;;37.38;21.58;;;3.40;99.90;;;;;;5054277;28;20093;-67
2021/12/28 00:30:58;;;;;;;40.10;22.27;;;3.50;99.90;;;;;;5053635;28;20052;-67
2021/12/28 00:33:25;;;;;;;41.42;23.55;;;3.50;99.90;;;;;;5054088;28;20126;-66
2021/12/28 00:35:51;;;;;;;44.25;24.13;;;3.50;99.90;;;;;;5053230;28;20614;-67
2021/12/28 00:38:23;;;;;;;45.38;25.23;;;3.50;99.90;;;;;;5053853;28;20037;-67
2021/12/28 00:40:51;;;;;;;47.42;28.38;;;3.50;99.90;;;;;;5052060;28;20517;-68
2021/12/28 00:43:17;;;;;;;48.53;28.67;;;3.50;99.90;;;;;;5052733;28;20041;-66
2021/12/28 00:45:43;;;;;;;47.97;27.27;;;3.50;99.90;;;;;;5052343;28;20045;-68
2021/12/28 00:48:09;;;;;;;44.95;26.02;;;3.50;99.90;;;;;;5052064;28;20048;-67
2021/12/28 00:50:36;;;;;;;47.38;27.88;;;3.50;99.90;;;;;;5052291;28;20048;-67
2021/12/28 00:53:02;;;;;;;55.85;28.15;;;3.50;99.90;;;;;;5053612;28;20056;-67
2021/12/28 00:55:28;;;;;;;59.70;30.70;;;3.50;99.90;;;;;;5053325;28;20084;-67
2021/12/28 00:57:54;;;;;;;55.72;30.50;;;3.50;99.90;;;;;;5052328;28;20114;-68
2021/12/28 01:00:23;;;;;;;57.88;33.25;;;3.50;99.90;;;;;;5051923;28;20032;-67
2021/12/28 01:02:49;;;;;;;58.13;31.73;;;3.50;99.90;;;;;;5040202;28;20544;-67
2021/12/28 01:05:15;;;;;;;61.75;30.45;;;3.50;99.90;;;;;;5033257;28;20104;-67
2021/12/28 01:07:41;;;;;;;51.30;27.92;;;3.50;99.90;;;;;;5048191;28;20045;-67
2021/12/28 01:10:11;;;;;;;60.17;32.10;;;3.50;99.90;;;;;;5039955;28;20047;-67
2021/12/28 01:12:37;;;;;;;53.25;31.08;;;3.50;99.90;;;;;;5051665;28;20045;-67
2021/12/28 01:15:06;;;;;;;65.40;33.78;;;3.50;99.90;;;;;;5051626;28;20033;-67
2021/12/28 01:17:35;;;;;;;62.60;32.13;;;3.50;99.90;;;;;;5052934;28;20049;-67
2021/12/28 01:20:02;;;;;;;66.70;33.42;;;3.50;99.90;;;;;;5044857;28;20054;-66
2021/12/28 01:22:28;;;;;;;68.93;34.67;;;3.60;99.90;;;;;;5033024;28;20171;-67
2021/12/28 01:24:54;;;;;;;68.20;32.92;;;3.60;99.90;;;;;;5032896;28;20128;-67
2021/12/28 01:27:20;;;;;;;73.10;33.15;;;3.60;99.90;;;;;;5033478;28;20050;-68
2021/12/28 01:29:45;;;;;;;75.85;34.03;;;3.60;99.90;;;;;;5052667;28;20053;-67
2021/12/28 01:32:12;;;;;;;74.13;32.75;;;3.60;99.90;;;;;;5051153;28;20076;-67
2021/12/28 01:34:38;;;;;;;68.43;30.75;;;3.60;99.90;;;;;;5051448;28;20041;-67
2021/12/28 01:37:04;;;;;;;76.57;34.95;;;3.60;99.90;;;;;;5052524;28;20044;-68
2021/12/28 01:39:30;;;;;;;79.93;34.00;;;3.60;99.90;;;;;;5052746;28;20037;-68
2021/12/28 01:41:55;;;;;;;72.50;33.78;;;3.60;99.90;;;;;;5049863;28;20507;-68
2021/12/28 01:44:22;;;;;;;82.00;37.25;;;3.60;99.90;;;;;;5051879;28;20045;-67
2021/12/28 01:46:48;;;;;;;98.15;49.53;;;3.60;99.90;;;;;;5052612;28;20111;-67
2021/12/28 01:49:13;;;;;;;120.90;59.03;;;3.60;99.90;;;;;;5046252;28;20088;-67
2021/12/28 01:51:39;;;;;;;140.98;76.30;;;3.60;99.90;;;;;;5032430;28;20523;-67
2021/12/28 01:54:06;;;;;;;133.77;69.38;;;3.70;99.90;;;;;;5032260;28;20388;-67
2021/12/28 01:56:37;;;;;;;109.10;57.00;;;3.70;99.90;;;;;;5044113;28;20055;-67
2021/12/28 01:59:03;;;;;;;100.90;45.97;;;3.70;99.90;;;;;;5050979;28;20099;-67
2021/12/28 02:01:29;;;;;;;111.90;49.55;;;3.70;99.90;;;;;;5052239;28;20057;-67
2021/12/28 02:03:56;;;;;;;112.30;48.75;;;3.70;99.90;;;;;;5051186;28;20060;-67
2021/12/28 02:06:25;;;;;;;105.85;45.90;;;3.70;99.90;;;;;;5050737;28;20048;-67
2021/12/28 02:08:54;;;;;;;128.40;49.88;;;3.70;99.90;;;;;;5043501;28;20116;-68
2021/12/28 02:11:21;;;;;;;116.00;46.28;;;3.70;99.90;;;;;;5051995;28;20052;-68
2021/12/28 02:13:47;;;;;;;114.60;43.45;;;3.70;99.90;;;;;;5051221;28;20053;-68
2021/12/28 02:16:12;;;;;;;111.88;42.50;;;3.70;99.90;;;;;;5052206;28;20172;-67
2021/12/28 02:18:38;;;;;;;117.18;40.05;;;3.80;99.90;;;;;;5052241;28;20123;-67
2021/12/28 02:21:06;;;;;;;136.13;40.65;;;3.80;99.90;;;;;;5051418;28;20067;-67
2021/12/28 02:23:32;;;;;;;102.78;38.30;;;3.80;99.90;;;;;;5049692;28;20041;-67
2021/12/28 02:25:58;;;;;;;143.02;43.30;;;3.80;99.90;;;;;;5050524;28;20072;-67
2021/12/28 02:28:24;;;;;;;150.48;53.80;;;3.80;99.90;;;;;;5052210;28;20087;-67
2021/12/28 02:30:52;;;;;;;146.93;54.10;;;3.80;99.90;;;;;;5051114;28;20049;-67
2021/12/28 02:33:20;;;;;;;158.52;53.72;;;3.80;99.90;;;;;;5052027;28;20053;-68
2021/12/28 02:35:46;;;;;;;164.80;48.47;;;3.80;99.90;;;;;;5051860;28;20084;-68
2021/12/28 02:38:12;;;;;;;157.68;49.38;;;3.90;99.90;;;;;;5051197;28;20195;-68
2021/12/28 02:40:40;;;;;;;159.07;50.58;;;3.90;99.90;;;;;;5051535;28;20140;-68
2021/12/28 02:43:08;;;;;;;170.40;51.35;;;3.80;99.90;;;;;;5051575;28;20116;-68
2021/12/28 02:45:38;;;;;;;173.98;51.20;;;3.80;99.90;;;;;;5050689;28;20049;-67
2021/12/28 02:48:07;;;;;;;214.85;55.10;;;3.80;99.90;;;;;;5051742;28;20053;-67
2021/12/28 02:50:42;;;;;;;203.60;51.80;;;3.80;99.90;;;;;;5051240;28;20049;-68
2021/12/28 02:53:09;;;;;;;152.23;45.50;;;3.80;99.90;;;;;;5051882;28;20080;-68
2021/12/28 02:55:36;;;;;;;178.20;48.13;;;3.80;99.90;;;;;;5051636;28;20041;-67
2021/12/28 02:58:12;;;;;;;211.38;51.05;;;3.80;99.90;;;;;;5051551;28;20048;-68
2021/12/28 03:00:48;;;;;;;192.98;49.92;;;3.90;99.90;;;;;;5057953;28;20613;-67
2021/12/28 03:03:15;;;;;;;197.70;49.63;;;3.90;99.90;;;;;;5050609;28;20041;-67
2021/12/28 03:05:44;;;;;;;228.80;53.72;;;4.00;99.90;;;;;;5041578;28;20492;-67
2021/12/28 03:08:11;;;;;;;250.85;52.45;;;3.90;99.90;;;;;;5068170;28;20126;-66
2021/12/28 03:10:39;;;;;;;203.52;51.72;;;3.90;99.90;;;;;;5053237;28;20041;-67
2021/12/28 03:13:06;;;;;;;183.27;47.40;;;3.90;99.90;;;;;;5054366;28;20068;-67
2021/12/28 03:15:33;;;;;;;188.27;47.67;;;3.90;99.90;;;;;;5046528;28;20042;-67
2021/12/28 03:17:58;;;;;;;219.52;50.40;;;3.90;99.90;;;;;;5035592;28;20055;-67
2021/12/28 03:20:25;;;;;;;198.45;48.42;;;4.00;99.90;;;;;;5035171;28;20046;-68
2021/12/28 03:22:50;;;;;;;202.60;48.35;;;4.00;99.90;;;;;;5043920;28;20519;-69
2021/12/28 03:25:16;;;;;;;223.95;50.97;;;4.10;99.90;;;;;;5055201;28;20132;-68
2021/12/28 03:27:43;;;;;;;209.73;47.35;;;4.10;99.90;;;;;;5049558;28;20037;-68
2021/12/28 03:30:12;;;;;;;242.82;50.92;;;4.10;99.90;;;;;;5035328;28;20069;-68
2021/12/28 03:32:38;;;;;;;233.82;48.72;;;4.10;99.90;;;;;;5046279;28;20471;-68
2021/12/28 03:35:05;;;;;;;223.77;49.17;;;4.10;99.90;;;;;;5054838;28;20063;-67
2021/12/28 03:37:32;;;;;;;271.45;53.28;;;4.10;99.90;;;;;;5053413;28;20048;-67
2021/12/28 03:39:59;;;;;;;250.52;50.63;;;4.10;99.90;;;;;;5069925;28;20464;-67
2021/12/28 03:42:25;;;;;;;227.60;51.17;;;4.10;99.90;;;;;;5054292;28;20048;-67
2021/12/28 03:44:51;;;;;;;208.43;48.22;;;4.10;99.90;;;;;;5054972;28;20098;-67
2021/12/28 03:47:17;;;;;;;246.25;48.22;;;4.10;99.90;;;;;;5054270;28;20041;-68
2021/12/28 03:49:43;;;;;;;260.70;51.78;;;4.10;99.90;;;;;;5053457;28;20247;-67
2021/12/28 03:52:08;;;;;;;303.17;52.63;;;4.10;99.90;;;;;;5054657;28;20081;-67
2021/12/28 03:54:34;;;;;;;285.05;54.63;;;4.10;99.90;;;;;;5053345;28;20128;-67
2021/12/28 03:57:01;;;;;;;236.95;51.85;;;4.10;99.90;;;;;;5054625;28;20033;-67
2021/12/28 03:59:27;;;;;;;257.08;52.03;;;4.20;99.90;;;;;;5036238;28;20041;-68
2021/12/28 04:01:52;;;;;;;394.75;62.80;;;4.10;99.90;;;;;;5050148;28;20132;-68
2021/12/28 04:04:19;;;;;;;321.15;57.50;;;4.20;99.90;;;;;;5053106;28;20049;-68
2021/12/28 04:06:44;;;;;;;184.40;47.90;;;4.20;99.90;;;;;;5052908;28;20067;-68
2021/12/28 04:09:12;;;;;;;209.55;48.72;;;4.20;99.90;;;;;;5054480;28;20471;-68
2021/12/28 04:11:39;;;;;;;248.80;49.70;;;4.10;99.90;;;;;;5035134;28;20060;-68
2021/12/28 04:14:07;;;;;;;319.55;55.53;;;4.20;99.90;;;;;;5052699;28;20091;-68
2021/12/28 04:16:33;;;;;;;286.38;51.85;;;4.20;99.90;;;;;;5053418;28;20041;-68
2021/12/28 04:19:01;;;;;;;248.13;49.13;;;4.20;99.90;;;;;;5052157;28;20056;-67
2021/12/28 04:21:27;;;;;;;280.58;53.28;;;4.20;99.90;;;;;;5054110;28;20048;-67
2021/12/28 04:23:53;;;;;;;270.15;53.28;;;4.20;99.90;;;;;;5052116;28;20037;-67
2021/12/28 04:26:20;;;;;;;305.42;54.97;;;4.20;99.90;;;;;;5054273;28;20111;-67
2021/12/28 04:28:45;;;;;;;236.55;52.15;;;4.30;99.90;;;;;;5054134;28;20040;-67
2021/12/28 04:31:12;;;;;;;368.92;59.50;;;4.30;99.90;;;;;;5051415;28;20044;-67
2021/12/28 04:33:38;;;;;;;357.17;60.63;;;4.30;99.90;;;;;;5053315;28;20053;-66
2021/12/28 04:36:10;;;;;;;310.48;56.47;;;4.30;99.90;;;;;;5052850;28;20045;-68
2021/12/28 04:38:36;;;;;;;355.33;58.83;;;4.30;99.90;;;;;;5054065;28;20182;-67
2021/12/28 04:41:02;;;;;;;370.33;60.90;;;4.30;99.90;;;;;;5053406;28;20125;-67
2021/12/28 04:43:29;;;;;;;348.15;59.42;;;4.40;99.90;;;;;;5052230;28;20087;-66
2021/12/28 04:45:55;;;;;;;340.25;58.88;;;4.40;99.90;;;;;;5053206;28;20041;-67
2021/12/28 04:48:20;;;;;;;326.95;58.53;;;4.40;99.90;;;;;;5053854;28;20403;-67
2021/12/28 04:50:46;;;;;;;371.05;59.72;;;4.40;99.90;;;;;;5053001;28;20064;-67
2021/12/28 04:53:12;;;;;;;391.42;62.25;;;5.00;99.90;;;;;;5053398;28;20055;-68
2021/12/28 04:55:41;;;;;;;224.18;51.75;;;4.40;99.90;;;;;;5053637;28;20041;-67
2021/12/28 04:58:07;;;;;;;312.35;56.53;;;4.40;99.90;;;;;;5051306;28;20467;-68
2021/12/28 05:00:33;;;;;;;395.73;62.95;;;4.40;99.90;;;;;;5050581;28;20082;-68
2021/12/28 05:02:59;;;;;;;376.33;61.30;;;4.40;99.90;;;;;;5051374;28;20123;-67
2021/12/28 05:05:25;;;;;;;224.30;50.95;;;4.50;99.90;;;;;;5051711;28;20460;-68
2021/12/28 05:07:51;;;;;;;392.48;62.95;;;4.50;99.90;;;;;;5050247;28;20044;-68
2021/12/28 05:10:17;;;;;;;278.92;56.05;;;4.50;99.90;;;;;;5051928;28;20052;-68
2021/12/28 05:12:43;;;;;;;230.95;51.55;;;4.50;99.90;;;;;;5053017;28;20057;-68
2021/12/28 05:15:10;;;;;;;265.70;53.67;;;4.50;99.90;;;;;;5053194;28;20063;-68
2021/12/28 05:17:36;;;;;;;353.02;60.70;;;4.50;99.90;;;;;;5052126;28;20063;-68
2021/12/28 05:20:03;;;;;;;305.17;57.13;;;4.60;99.90;;;;;;5051255;28;20106;-68
2021/12/28 05:22:31;;;;;;;361.13;61.28;;;4.60;99.90;;;;;;5051956;28;20096;-68
2021/12/28 05:24:56;;;;;;;520.83;72.05;;;4.70;99.90;;;;;;5052488;28;20522;-67
2021/12/28 05:27:22;;;;;;;428.65;64.93;;;4.70;99.90;;;;;;5051954;28;20127;-68
2021/12/28 05:29:49;;;;;;;438.20;66.38;;;4.80;99.90;;;;;;5033780;28;20111;-67
2021/12/28 05:32:16;;;;;;;407.80;64.65;;;4.70;99.90;;;;;;5051027;28;20538;-67
2021/12/28 05:34:42;;;;;;;306.15;57.25;;;4.80;99.90;;;;;;5051348;28;20052;-68
2021/12/28 05:37:08;;;;;;;394.42;63.08;;;4.80;99.90;;;;;;5051640;28;20044;-67
2021/12/28 05:39:33;;;;;;;319.50;57.38;;;4.80;99.90;;;;;;5052566;28;20102;-67
2021/12/28 05:42:00;;;;;;;348.77;54.08;;;4.80;99.90;;;;;;5052530;28;20116;-67
2021/12/28 05:44:25;;;;;;;350.90;55.70;;;4.80;99.90;;;;;;5051603;28;20491;-67
2021/12/28 05:46:51;;;;;;;420.92;61.40;;;4.80;99.90;;;;;;5052671;28;20045;-67
2021/12/28 05:49:17;;;;;;;297.10;50.30;;;4.80;99.90;;;;;;5050941;28;20099;-67
2021/12/28 05:51:43;;;;;;;312.23;52.40;;;4.80;99.90;;;;;;5050569;28;20110;-67
2021/12/28 05:54:09;;;;;;;346.27;54.22;;;4.70;99.90;;;;;;5052484;28;20049;-66
2021/12/28 05:56:36;;;;;;;288.83;48.58;;;4.70;99.90;;;;;;5052290;28;20417;-67
2021/12/28 05:59:02;;;;;;;249.60;47.53;;;4.70;99.90;;;;;;5050628;28;20084;-67
2021/12/28 06:01:28;;;;;;;248.82;46.75;;;4.70;99.90;;;;;;5050273;28;20728;-67
2021/12/28 06:03:54;;;;;;;222.35;46.00;;;4.70;99.90;;;;;;5034108;28;20033;-67
2021/12/28 06:06:20;;;;;;;279.83;48.47;;;4.70;99.90;;;;;;5050907;28;20178;-67
2021/12/28 06:08:48;;;;;;;181.80;42.50;;;4.60;99.90;;;;;;5051858;28;20089;-68
2021/12/28 06:11:14;;;;;;;198.32;43.05;;;4.60;99.90;;;;;;5034155;28;20055;-68
2021/12/28 06:13:40;;;;;;;196.50;42.83;;;4.60;99.90;;;;;;5050655;28;20049;-68
2021/12/28 06:16:07;;;;;;;210.60;44.60;;;4.60;99.90;;;;;;5051976;28;20383;-68
2021/12/28 06:18:33;;;;;;;193.35;42.42;;;4.60;99.90;;;;;;5051343;28;20128;-68
2021/12/28 06:20:58;;;;;;;200.02;41.55;;;4.60;99.90;;;;;;5051759;28;20132;-67
2021/12/28 06:23:24;;;;;;;157.52;39.83;;;4.60;99.90;;;;;;5052105;28;20529;-68
2021/12/28 06:25:50;;;;;;;184.02;40.63;;;4.60;99.90;;;;;;5051315;28;20049;-68
2021/12/28 06:28:16;;;;;;;175.13;40.00;;;4.60;99.90;;;;;;5051780;28;20124;-67
2021/12/28 06:30:41;;;;;;;177.75;40.83;;;4.60;99.90;;;;;;5052121;28;20045;-68
2021/12/28 06:33:07;;;;;;;195.82;41.10;;;5.20;99.90;;;;;;5052200;28;20041;-67
2021/12/28 06:35:33;;;;;;;217.07;42.72;;;4.70;99.90;;;;;;5033842;28;20148;-67
2021/12/28 06:37:59;;;;;;;164.85;38.80;;;4.60;99.90;;;;;;5052257;28;20195;-67
2021/12/28 06:40:25;;;;;;;186.00;39.60;;;4.60;99.90;;;;;;5051067;28;20102;-68
2021/12/28 06:42:50;;;;;;;193.02;40.25;;;4.60;99.90;;;;;;5055117;28;20044;-68
2021/12/28 06:45:16;;;;;;;203.43;39.72;;;4.60;99.90;;;;;;5055739;28;20440;-68
2021/12/28 06:47:42;;;;;;;193.13;41.20;;;4.60;99.90;;;;;;5054060;28;20044;-69
2021/12/28 06:50:08;;;;;;;206.13;42.25;;;4.60;99.90;;;;;;5054719;28;20344;-68
2021/12/28 06:52:34;;;;;;;194.15;39.30;;;4.60;99.90;;;;;;5054288;28;20049;-68
2021/12/28 06:55:00;;;;;;;164.85;38.95;;;4.60;99.90;;;;;;5055591;28;20053;-68
2021/12/28 06:57:26;;;;;;;189.98;38.67;;;4.60;99.90;;;;;;5055793;28;20047;-68
2021/12/28 06:59:51;;;;;;;169.93;39.00;;;4.60;99.90;;;;;;5053579;28;20041;-68
2021/12/28 07:02:18;;;;;;;166.00;38.65;;;4.60;99.90;;;;;;5055520;28;20605;-68
2021/12/28 07:04:44;;;;;;;150.70;38.92;;;4.60;99.90;;;;;;5037352;28;20060;-69
2021/12/28 07:07:11;;;;;;;155.13;39.95;;;4.60;99.90;;;;;;5054207;28;20057;-69
2021/12/28 07:09:38;;;;;;;155.00;39.45;;;4.60;99.90;;;;;;5054814;28;20048;-68
2021/12/28 07:12:04;;;;;;;148.45;38.42;;;4.60;99.90;;;;;;5054394;28;20120;-68
2021/12/28 07:14:30;;;;;;;135.68;37.17;;;4.60;99.90;;;;;;5054049;28;20049;-68
2021/12/28 07:16:56;;;;;;;134.93;36.42;;;4.60;99.90;;;;;;5054693;28;20129;-67
2021/12/28 07:19:22;;;;;;;148.07;38.70;;;4.70;99.90;;;;;;5053881;28;20094;-68
2021/12/28 07:21:48;;;;;;;137.85;37.75;;;4.60;99.90;;;;;;5055164;28;20353;-68
2021/12/28 07:24:13;;;;;;;124.45;34.70;;;4.60;99.90;;;;;;5054914;28;20114;-68
2021/12/28 07:26:40;;;;;;;140.43;35.88;;;4.60;99.90;;;;;;5054647;28;20076;-68
2021/12/28 07:29:06;;;;;;;138.68;35.30;;;4.60;99.90;;;;;;5053523;28;20129;-68
2021/12/28 07:31:32;;;;;;;137.68;35.13;;;4.50;99.90;;;;;;5053799;28;20053;-68
2021/12/28 07:33:59;;;;;;;137.32;34.50;;;4.50;99.90;;;;;;5054182;28;20052;-68
2021/12/28 07:36:24;;;;;;;126.30;34.60;;;4.60;99.90;;;;;;5053824;28;20033;-68
2021/12/28 07:38:50;;;;;;;139.77;37.03;;;4.50;99.90;;;;;;5053319;28;20502;-68
2021/12/28 07:41:16;;;;;;;134.85;34.47;;;4.50;99.90;;;;;;5054534;28;20049;-67
2021/12/28 07:43:42;;;;;;;136.48;35.67;;;4.50;99.90;;;;;;5054156;28;20037;-67
2021/12/28 07:46:07;;;;;;;134.68;35.03;;;4.60;99.90;;;;;;5070209;28;20037;-67
2021/12/28 07:48:33;;;;;;;131.88;36.03;;;4.60;99.90;;;;;;5036661;28;20501;-67
2021/12/28 07:50:59;;;;;;;130.45;35.65;;;4.60;99.90;;;;;;5052909;28;20040;-67
2021/12/28 07:53:25;;;;;;;125.57;35.67;;;4.60;99.90;;;;;;5053810;28;20060;-67
2021/12/28 07:55:50;;;;;;;123.82;36.53;;;4.60;99.90;;;;;;5054780;28;20490;-67
2021/12/28 07:58:16;;;;;;;120.55;34.92;;;4.60;99.90;;;;;;5054677;28;20731;-67
2021/12/28 08:00:42;;;;;;;101.43;31.88;;;4.60;99.90;;;;;;5053846;28;20045;-67
2021/12/28 08:03:07;;;;;;;118.10;34.00;;;4.60;99.90;;;;;;5053227;28;20110;-67
2021/12/28 08:05:35;;;;;;;109.45;33.33;;;4.60;99.90;;;;;;5054506;28;20037;-67
2021/12/28 08:08:01;;;;;;;106.25;31.80;;;4.30;99.90;;;;;;5053333;28;20439;-67
2021/12/28 08:10:27;;;;;;;108.65;31.33;;;4.60;99.90;;;;;;5052826;28;20045;-67
2021/12/28 08:12:54;;;;;;;102.70;32.85;;;4.60;99.90;;;;;;5053294;28;20064;-69
2021/12/28 08:15:21;;;;;;;81.78;27.80;;;4.60;99.90;;;;;;5047087;28;20085;-68
2021/12/28 08:17:47;;;;;;;83.47;27.75;;;4.60;99.90;;;;;;5033244;28;20387;-67
2021/12/28 08:20:16;;;;;;;81.25;28.83;;;4.60;99.90;;;;;;5034113;28;20053;-68
2021/12/28 08:22:42;;;;;;;84.30;29.10;;;4.60;99.90;;;;;;5052521;28;20424;-68
2021/12/28 08:25:10;;;;;;;79.13;27.52;;;4.60;99.90;;;;;;5053773;28;20040;-68
2021/12/28 08:27:36;;;;;;;72.88;25.88;;;4.60;99.90;;;;;;5052846;28;20037;-69
2021/12/28 08:30:04;;;;;;;71.72;26.02;;;4.60;99.90;;;;;;5053162;28;20056;-67
2021/12/28 08:32:30;;;;;;;64.68;23.38;;;4.60;99.90;;;;;;5054238;28;20082;-67
2021/12/28 08:34:56;;;;;;;64.88;24.33;;;4.60;99.90;;;;;;5052910;28;20145;-68
2021/12/28 08:37:22;;;;;;;62.95;25.73;;;4.60;99.90;;;;;;5053659;28;20045;-68
2021/12/28 08:39:47;;;;;;;73.07;25.02;;;4.80;99.90;;;;;;5054208;28;20143;-69
2021/12/28 08:42:13;;;;;;;68.68;24.52;;;4.60;99.90;;;;;;5053779;28;20057;-68
2021/12/28 08:44:39;;;;;;;64.43;23.08;;;4.70;99.90;;;;;;5053489;28;20045;-67
2021/12/28 08:47:04;;;;;;;66.88;22.45;;;4.70;99.90;;;;;;5052879;28;20045;-69
2021/12/28 08:49:30;;;;;;;62.42;22.25;;;4.70;99.90;;;;;;5053599;28;20041;-67
2021/12/28 08:51:56;;;;;;;70.70;22.35;;;4.80;99.90;;;;;;5068521;28;20414;-67
2021/12/28 08:54:22;;;;;;;55.63;21.42;;;4.70;99.90;;;;;;5054005;28;20434;-68
2021/12/28 08:56:50;;;;;;;62.40;22.88;;;4.90;99.90;;;;;;5053890;28;20057;-68
2021/12/28 08:59:16;;;;;;;;;;;4.80;99.90;;;;;;5053599;28;20483;-68
2021/12/28 09:01:42;;;;;;;59.97;23.45;;;4.80;99.90;;;;;;5053815;28;19921;-68
2021/12/28 09:04:08;;;;;;;68.63;24.98;;;4.80;99.90;;;;;;5052507;28;20037;-68
2021/12/28 09:06:34;;;;;;;57.75;22.10;;;4.80;99.90;;;;;;5053132;28;20186;-68
2021/12/28 09:08:59;;;;;;;69.60;22.70;;;4.90;99.90;;;;;;5053254;28;20053;-68
2021/12/28 09:11:25;;;;;;;59.35;21.95;;;4.90;99.90;;;;;;5051499;28;20044;-67
2021/12/28 09:13:51;;;;;;;58.15;21.75;;;5.00;99.90;;;;;;5053113;28;20109;-67
2021/12/28 09:16:17;;;;;;;53.35;21.25;;;5.00;99.90;;;;;;5052385;28;20125;-68
2021/12/28 09:18:43;;;;;;;58.28;21.60;;;5.00;99.90;;;;;;5052900;28;20454;-67
2021/12/28 09:21:09;;;;;;;56.30;20.85;;;5.00;99.90;;;;;;5053159;28;20053;-67
2021/12/28 09:23:35;;;;;;;53.45;19.80;;;5.00;99.90;;;;;;5053195;28;20113;-67
2021/12/28 09:26:01;;;;;;;60.88;20.77;;;5.10;99.90;;;;;;5052282;28;20118;-67
2021/12/28 09:28:27;;;;;;;50.83;19.23;;;5.10;99.90;;;;;;5053227;28;20090;-67
2021/12/28 09:30:52;;;;;;;46.13;19.15;;;5.10;99.90;;;;;;5053119;28;20106;-68
2021/12/28 09:33:19;;;;;;;48.00;17.77;;;5.20;99.90;;;;;;5052579;28;20049;-68
2021/12/28 09:35:45;;;;;;;50.67;18.42;;;5.20;99.90;;;;;;5053013;28;20052;-67
2021/12/28 09:38:11;;;;;;;46.95;17.42;;;5.40;99.90;;;;;;5051024;28;20052;-67
2021/12/28 09:40:38;;;;;;;49.42;17.63;;;5.20;99.90;;;;;;5052842;28;20044;-68
2021/12/28 09:43:06;;;;;;;51.00;19.00;;;5.30;99.90;;;;;;5051247;28;20083;-67
2021/12/28 09:45:33;;;;;;;46.42;18.33;;;5.30;99.90;;;;;;5052527;28;20443;-67
2021/12/28 09:47:59;;;;;;;47.03;18.02;;;5.40;99.90;;;;;;5051233;28;20044;-68
2021/12/28 09:50:25;;;;;;;48.47;18.23;;;5.40;99.90;;;;;;5052774;28;20045;-67
2021/12/28 09:52:51;;;;;;;53.10;17.55;;;5.40;99.90;;;;;;5052609;28;20475;-67
2021/12/28 09:55:20;;;;;;;47.20;17.08;;;5.50;99.90;;;;;;5051575;28;20037;-67
2021/12/28 09:57:46;;;;;;;41.40;16.77;;;5.50;99.90;;;;;;5052611;28;20106;-67
2021/12/28 10:00:13;;;;;;;54.75;17.25;;;5.50;99.90;;;;;;5051686;28;20069;-66
2021/12/28 10:02:38;;;;;;;51.38;18.17;;;5.50;99.90;;;;;;5052344;28;20124;-67
2021/12/28 10:05:11;;;;;;;46.67;18.25;;;5.60;99.90;;;;;;5051286;28;20128;-68
2021/12/28 10:07:48;;;;;;;42.42;14.98;;;5.60;99.90;;;;;;5052202;28;20454;-67
2021/12/28 10:10:14;;;;;;;48.35;14.38;;;5.60;99.90;;;;;;5052494;28;20094;-67
2021/12/28 10:12:42;;;;;;;30.80;14.65;;;5.60;99.90;;;;;;5051472;28;20049;-67
2021/12/28 10:15:12;;;;;;;43.15;13.52;;;5.60;99.90;;;;;;5051174;28;20057;-67
2021/12/28 10:17:41;;;;;;;38.17;12.70;;;5.60;99.90;;;;;;5050514;28;20682;-67
2021/12/28 10:20:11;;;;;;;;;;;5.60;99.90;;;;;;5052297;28;20067;-67
2021/12/28 10:22:39;;;;;;;36.80;12.15;;;5.60;99.90;;;;;;5052344;28;19921;-68
2021/12/28 10:25:12;;;;;;;34.53;12.52;;;5.60;99.90;;;;;;5050122;28;20083;-67
2021/12/28 10:27:40;;;;;;;37.35;12.65;;;5.70;99.90;;;;;;5052116;28;20167;-67
2021/12/28 10:30:17;;;;;;;44.85;16.90;;;5.70;99.90;;;;;;5050867;28;20118;-67
2021/12/28 10:32:47;;;;;;;33.78;13.50;;;5.70;99.90;;;;;;5051820;28;20041;-68
2021/12/28 10:35:17;;;;;;;30.38;12.73;;;5.80;99.90;;;;;;5052204;28;20414;-67
2021/12/28 10:37:51;;;;;;;38.30;14.00;;;5.80;99.90;;;;;;5051275;28;20149;-67
2021/12/28 10:40:26;;;;;;;41.30;14.10;;;5.80;99.90;;;;;;5052145;28;20479;-67
2021/12/28 10:42:59;;;;;;;40.53;12.88;;;5.80;99.90;;;;;;5051234;28;20076;-67
2021/12/28 10:45:31;;;;;;;35.03;11.88;;;5.90;99.90;;;;;;5050811;28;20049;-69
2021/12/28 10:47:57;;;;;;;31.52;12.20;;;5.90;99.90;;;;;;5050979;28;20087;-68
2021/12/28 10:50:31;;;;;;;39.00;11.70;;;5.90;99.90;;;;;;5051434;28;20037;-67
2021/12/28 10:53:06;;;;;;;34.83;11.40;;;5.90;99.90;;;;;;5051491;28;20045;-68
2021/12/28 10:55:32;;;;;;;36.80;11.45;;;6.00;99.90;;;;;;5051606;28;20391;-67
2021/12/28 10:57:58;;;;;;;41.40;11.90;;;6.00;99.90;;;;;;5052017;28;20041;-67
2021/12/28 11:00:35;;;;;;;32.53;11.30;;;6.00;99.90;;;;;;5051058;28;20052;-68
2021/12/28 11:03:16;;;;;;;38.35;11.80;;;6.00;99.90;;;;;;5051463;28;20053;-67
2021/12/28 11:05:44;;;;;;;40.78;12.27;;;6.00;99.90;;;;;;5031977;28;20072;-68
2021/12/28 11:08:09;;;;;;;42.28;12.25;;;6.00;99.90;;;;;;5030495;28;20061;-67
2021/12/28 11:10:45;;;;;;;33.70;11.73;;;6.00;99.90;;;;;;5032341;28;20049;-67
2021/12/28 11:13:12;;;;;;;33.90;13.35;;;6.00;99.90;;;;;;5051940;28;20049;-68
2021/12/28 11:15:45;;;;;;;50.40;16.38;;;6.00;99.90;;;;;;5050727;28;20076;-68
2021/12/28 11:18:33;;;;;;;46.22;15.52;;;6.00;99.90;;;;;;5050134;28;20053;-68
2021/12/28 11:21:09;;;;;;;38.83;13.57;;;6.00;99.90;;;;;;5049924;28;20053;-69
2021/12/28 11:23:34;;;;;;;39.33;13.52;;;6.00;99.90;;;;;;5049260;28;20058;-68
2021/12/28 11:26:04;;;;;;;46.08;14.20;;;6.00;99.90;;;;;;5049925;28;20041;-68
2021/12/28 11:28:31;;;;;;;43.70;14.10;;;6.10;99.90;;;;;;5052405;28;20098;-68
2021/12/28 11:31:16;;;;;;;49.95;13.77;;;6.10;99.90;;;;;;5054964;28;20116;-69
2021/12/28 11:33:53;;;;;;;38.70;14.63;;;6.10;99.90;;;;;;5055066;28;20493;-68
2021/12/28 11:36:21;;;;;;;42.10;14.85;;;6.10;99.90;;;;;;5054747;28;20580;-68
2021/12/28 11:38:47;;;;;;;;;;;6.10;99.90;;;;;;5055779;28;20135;-68
2021/12/28 11:41:13;;;;;;;41.40;14.43;;;6.10;99.90;;;;;;5055056;28;20294;-68
2021/12/28 11:43:40;;;;;;;46.45;14.50;;;6.20;99.90;;;;;;5054450;28;20052;-69
2021/12/28 11:46:07;;;;;;;39.50;15.60;;;6.40;99.90;;;;;;5053593;28;20056;-68
2021/12/28 11:48:34;;;;;;;48.20;16.30;;;6.20;99.90;;;;;;5054890;28;20045;-68
2021/12/28 11:51:00;;;;;;;56.22;17.63;;;6.20;99.90;;;;;;5054094;28;20051;-69
2021/12/28 11:53:27;;;;;;;48.20;17.00;;;6.20;99.90;;;;;;5053217;28;20044;-68
2021/12/28 11:55:57;;;;;;;47.80;17.52;;;6.20;99.90;;;;;;5055121;28;20045;-68
2021/12/28 11:58:48;;;;;;;42.38;15.15;;;6.30;99.90;;;;;;5054911;28;20045;-68
2021/12/28 12:01:41;;;;;;;57.83;17.75;;;6.30;99.90;;;;;;5053840;28;20457;-69
2021/12/28 12:04:32;;;;;;;58.35;19.27;;;6.30;99.90;;;;;;5054394;28;20051;-69
2021/12/28 12:07:16;;;;;;;54.17;17.30;;;6.30;99.90;;;;;;5053416;28;20049;-69
2021/12/28 12:09:54;;;;;;;58.88;19.73;;;6.40;99.90;;;;;;5054659;28;20088;-68
2021/12/28 12:12:22;;;;;;;41.80;16.95;;;6.40;99.90;;;;;;5052449;28;20564;-67
2021/12/28 12:14:54;;;;;;;48.55;18.05;;;6.40;99.90;;;;;;5054140;28;20497;-68
2021/12/28 12:17:29;;;;;;;49.55;18.85;;;6.50;99.90;;;;;;5054567;28;20116;-67
2021/12/28 12:20:30;;;;;;;53.42;17.40;;;6.50;99.90;;;;;;5051542;28;20049;-68
2021/12/28 12:23:08;;;;;;;44.30;16.63;;;6.50;99.90;;;;;;5050423;28;20147;-69
2021/12/28 12:25:45;;;;;;;57.67;19.95;;;6.50;99.90;;;;;;5052882;28;20071;-68
2021/12/28 12:28:11;;;;;;;49.83;18.55;;;6.60;99.90;;;;;;5053689;28;20053;-68
2021/12/28 12:30:44;;;;;;;38.88;16.10;;;6.50;99.90;;;;;;5053230;28;20134;-69
2021/12/28 12:33:12;;;;;;;45.00;16.48;;;6.60;99.90;;;;;;5054563;28;20084;-69
2021/12/28 12:35:59;;;;;;;56.00;19.55;;;6.60;99.90;;;;;;5054379;28;20053;-69
2021/12/28 12:38:25;;;;;;;40.85;16.73;;;6.60;99.90;;;;;;5054136;28;20056;-69